Caplinger Mills, MO (65607)

9:33 AM CST on December 09, 2016 (GMT -0600)
Freemont St | | Change Station

Elev 948 ft 37.71 °N, 93.78 °W | Updated 22 seconds ago

Clear
Clear
21.6 °F
Feels Like 22 °F
N
0.0
Wind Variable Wind from ENE
Gusts 0.0 mph

Today
High -- | Low -- °F
--% Chance of Precip.
Yesterday
High -- | Low -- °F
Precip. -- in
Pressure 30.68 in
Visibility 10.0 miles
Clouds Clear
Windchill 22 °F
Dew Point -8 °F
Humidity 26%
Rainfall 0.00 in
Snow Depth Not available.
7:19 AM 4:56 PM
Waxing Gibbous, 75% visible
METAR KGLY 091515Z AUTO 00000KT 10SM CLR M08/M11 A3068 RMK AO2
Pressure 30.68 in
Visibility 10.0 miles
Clouds Clear
Windchill 22 °F
Dew Point -8 °F
Humidity 26%
Rainfall 0.00 in
Snow Depth Not available.
7:19 AM 4:56 PM
Waxing Gibbous, 75% visible
METAR KGLY 091515Z AUTO 00000KT 10SM CLR M08/M11 A3068 RMK AO2

10-Day Weather Forecast

Almanac

Astronomy

Dec. 09, 2016 Rise Set
Actual Time
Civil Twilight
Nautical Twilight
Astronomical Twilight
Moon
Length of Visible Light
Length of Day
Tomorrow will be .
, % of the Moon is Illuminated

Today's Extremes

State Highs State Lows

Community

WunderPhotos

Upload Photos

1,956,432 photos uploaded!

WunderBlog® & News

Nearby

Air Quality

  Air Quality AQ Index Pollutant
Not available.

Snow Depth

Station Depth Elevation

Earthquake Activity

City Distance Mag. Time & Date
Minimum magnitude displayed is 2.5.

Coastal Water Temperatures

Place Temperature

Stations

Nearby Weather Stations

Station Location Temp. Windchill Dew Point Humidity Wind Precip. Elev Updated Type
                   

Watches & Warnings

There are currently no watches in effect.